createdAt,value
2023-04-15T00:00:28.050Z,71.6795
2023-04-15T00:01:28.607Z,70.4453
2023-04-15T00:02:29.258Z,70.9666
2023-04-15T00:03:30.087Z,70.9077
2023-04-15T00:04:30.983Z,71.3086
2023-04-15T00:05:31.538Z,70.2375
2023-04-15T00:06:32.100Z,69.1553
2023-04-15T00:07:32.637Z,70.0285
2023-04-15T00:08:33.198Z,70.0776
2023-04-15T00:09:34.308Z,69.7552
2023-04-15T00:10:34.833Z,69.8270
2023-04-15T00:11:35.366Z,70.3723
2023-04-15T00:12:36.064Z,69.8304
2023-04-15T00:13:36.569Z,70.7383
2023-04-15T00:14:37.147Z,70.7515
2023-04-15T00:15:37.714Z,70.5579
2023-04-15T00:16:38.318Z,70.7676
2023-04-15T00:17:38.905Z,71.1753
2023-04-15T00:18:39.466Z,71.6344
2023-04-15T00:19:40.294Z,71.3341
2023-04-15T00:20:40.814Z,71.1233
2023-04-15T00:21:41.333Z,71.2188
2023-04-15T00:22:41.891Z,71.7155
2023-04-15T00:23:42.446Z,72.3582
2023-04-15T00:24:43.256Z,74.4849
2023-04-15T00:25:43.851Z,74.5909
2023-04-15T00:26:44.375Z,73.9204
2023-04-15T00:27:44.945Z,73.6875
2023-04-15T00:28:45.514Z,74.1744
2023-04-15T00:29:46.311Z,74.2986
2023-04-15T00:30:46.944Z,73.8341
2023-04-15T00:31:47.471Z,73.3721
2023-04-15T00:32:48.086Z,73.2721
2023-04-15T00:33:48.624Z,74.2723
2023-04-15T00:34:49.156Z,74.9003
2023-04-15T00:35:49.681Z,74.5857
2023-04-15T00:36:50.248Z,73.9624
2023-04-15T00:37:50.806Z,73.3276
2023-04-15T00:38:51.388Z,72.2471
2023-04-15T00:39:52.012Z,72.5073
2023-04-15T00:40:52.558Z,72.9896
2023-04-15T00:41:53.129Z,73.1899
2023-04-15T00:42:53.666Z,72.8017
2023-04-15T00:43:54.212Z,73.4525
2023-04-15T00:44:54.781Z,72.5949
2023-04-15T00:45:55.440Z,72.7529
2023-04-15T00:46:56.315Z,72.4313
2023-04-15T00:47:56.934Z,72.0681
2023-04-15T00:48:57.836Z,71.5582
2023-04-15T00:49:58.406Z,71.4893
2023-04-15T00:50:58.973Z,71.0623
2023-04-15T00:51:59.728Z,71.2822
2023-04-15T00:53:00.313Z,70.9071
2023-04-15T00:54:00.850Z,70.8748
2023-04-15T00:55:01.445Z,70.7788
2023-04-15T00:56:02.011Z,71.1529
2023-04-15T00:57:02.667Z,71.5093
2023-04-15T00:59:06.310Z,71.4301
2023-04-15T01:00:06.921Z,71.5276
2023-04-15T01:01:09.115Z,70.9078
2023-04-15T01:02:09.749Z,70.7111
2023-04-15T01:07:13.785Z,70.8139
2023-04-15T01:10:53.283Z,70.4167
2023-04-15T01:11:47.022Z,70.7440
2023-04-15T01:12:47.577Z,70.9733
2023-04-15T01:13:48.294Z,71.2820
2023-04-15T01:14:48.382Z,71.6043
2023-04-15T01:15:49.021Z,71.3588
2023-04-15T01:16:49.829Z,71.5973
2023-04-15T01:17:50.414Z,71.2998
2023-04-15T01:18:50.947Z,72.0290
2023-04-15T01:19:51.501Z,72.4296
2023-04-15T01:20:52.034Z,72.6604
2023-04-15T01:21:52.697Z,72.8133
2023-04-15T01:22:53.180Z,73.0805
2023-04-15T01:23:53.734Z,73.1325
2023-04-15T01:24:54.473Z,72.8148
2023-04-15T01:25:55.019Z,72.7956
2023-04-15T01:26:55.604Z,72.8732
2023-04-15T01:28:10.865Z,72.9021
2023-04-15T01:28:57.291Z,73.1706
2023-04-15T01:29:57.891Z,73.3740
2023-04-15T01:30:58.391Z,72.0636
2023-04-15T01:31:59.052Z,72.2084
2023-04-15T01:32:59.640Z,72.9282
2023-04-15T01:34:00.207Z,73.1391
2023-04-15T01:35:00.717Z,73.2166
2023-04-15T01:36:01.249Z,72.9692
2023-04-15T01:37:01.881Z,73.0065
2023-04-15T01:38:02.461Z,72.9228
2023-04-15T01:39:03.099Z,72.9756
2023-04-15T01:40:03.727Z,72.9933
2023-04-15T01:41:04.301Z,73.1256
2023-04-15T01:42:04.827Z,73.0944
2023-04-15T01:43:05.398Z,73.5932
2023-04-15T01:44:05.929Z,74.0039
2023-04-15T01:45:06.468Z,73.9914
2023-04-15T01:46:06.998Z,74.1323
2023-04-15T01:47:07.546Z,74.5128
2023-04-15T01:48:08.138Z,74.0299
2023-04-15T01:49:08.937Z,74.1199
2023-04-15T01:50:09.462Z,73.7789
2023-04-15T01:51:10.043Z,74.4100
2023-04-15T01:52:10.583Z,74.4381
2023-04-15T01:53:11.154Z,74.7200
2023-04-15T01:54:12.300Z,75.4608
2023-04-15T01:55:12.858Z,75.7894
2023-04-15T01:56:15.283Z,75.8852
2023-04-15T01:57:15.104Z,76.4843
2023-04-15T01:58:15.592Z,76.4353
2023-04-15T01:59:16.326Z,76.0188
2023-04-15T02:00:16.844Z,75.9305
2023-04-15T02:01:17.431Z,75.4958
2023-04-15T02:02:17.987Z,75.9090
2023-04-15T02:03:18.640Z,75.2568
2023-04-15T02:04:20.768Z,75.1328
2023-04-15T02:05:24.807Z,74.9586
2023-04-15T02:06:25.359Z,75.0179
2023-04-15T02:07:25.884Z,75.2155
2023-04-15T02:08:26.420Z,75.0799
2023-04-15T02:09:26.965Z,75.0406
2023-04-15T02:10:27.539Z,75.2287
2023-04-15T02:11:28.301Z,75.4741
2023-04-15T02:12:28.809Z,75.8143
2023-04-15T02:13:29.356Z,75.5608
2023-04-15T02:14:29.858Z,75.6131
2023-04-15T02:15:30.381Z,75.5632
2023-04-15T02:16:30.983Z,75.6488
2023-04-15T02:17:31.526Z,75.9146
2023-04-15T02:18:32.032Z,75.6537
2023-04-15T02:19:32.556Z,75.2205
2023-04-15T02:20:33.089Z,75.5242
2023-04-15T02:21:34.258Z,76.0432
2023-04-15T02:22:34.877Z,75.8127
2023-04-15T02:23:35.438Z,75.8315
2023-04-15T02:24:35.931Z,75.6730
2023-04-15T02:25:36.453Z,75.7742
2023-04-15T02:26:37.013Z,75.8222
2023-04-15T02:27:37.546Z,75.9190
2023-04-15T02:28:38.077Z,75.5876
2023-04-15T02:29:38.665Z,76.0020
2023-04-15T02:30:39.195Z,76.3566
2023-04-15T02:31:40.015Z,76.1551
2023-04-15T02:32:40.594Z,75.7828
2023-04-15T02:33:41.105Z,75.7567
2023-04-15T02:34:41.660Z,75.5672
2023-04-15T02:35:42.233Z,75.6966
2023-04-15T02:36:42.807Z,75.9628
2023-04-15T02:37:43.434Z,75.1404
2023-04-15T02:38:44.055Z,74.3380
2023-04-15T02:39:44.582Z,74.3579
2023-04-15T02:40:45.142Z,74.1681
2023-04-15T02:41:45.977Z,73.9940
2023-04-15T02:42:46.581Z,74.0753
2023-04-15T02:43:47.112Z,74.4008
2023-04-15T02:44:47.680Z,74.5499
2023-04-15T02:45:48.398Z,75.0231
2023-04-15T02:46:49.094Z,75.2366
2023-04-15T02:47:49.707Z,75.3733
2023-04-15T02:48:50.485Z,75.4665
2023-04-15T02:49:51.002Z,75.7325
2023-04-15T02:50:52.048Z,75.7774
2023-04-15T02:51:52.857Z,75.7014
2023-04-15T02:52:53.385Z,76.1408
2023-04-15T02:53:53.973Z,76.3173
2023-04-15T02:54:54.530Z,76.3582
2023-04-15T02:55:55.065Z,76.4537
2023-04-15T02:56:55.814Z,76.5219
2023-04-15T02:57:56.365Z,76.5166
2023-04-15T02:58:56.960Z,76.8097
2023-04-15T02:59:57.454Z,76.3946
2023-04-15T03:00:57.998Z,75.7056
2023-04-15T03:01:58.549Z,76.4232
2023-04-15T03:02:59.215Z,76.3772
2023-04-15T03:03:59.904Z,76.5516
2023-04-15T03:05:00.425Z,76.1518
2023-04-15T03:06:00.943Z,76.1546
2023-04-15T03:07:01.487Z,76.3837
2023-04-15T03:08:02.032Z,76.2833
2023-04-15T03:09:02.731Z,76.2331
2023-04-15T03:10:03.324Z,76.3589
2023-04-15T03:11:03.895Z,76.7359
2023-04-15T03:12:04.421Z,76.7942
2023-04-15T03:13:04.986Z,77.0958
2023-04-15T03:14:05.547Z,77.2712
2023-04-15T03:15:06.083Z,77.5280
2023-04-15T03:16:06.718Z,77.4053
2023-04-15T03:17:07.275Z,77.2749
2023-04-15T03:18:07.928Z,76.9869
2023-04-15T03:19:08.484Z,77.0794
2023-04-15T03:20:09.061Z,76.7281
2023-04-15T03:21:09.563Z,76.6290
2023-04-15T03:22:10.122Z,76.5614
2023-04-15T03:23:10.650Z,76.6920
2023-04-15T03:24:11.219Z,76.7189
2023-04-15T03:25:11.748Z,76.5332
2023-04-15T03:26:12.300Z,76.3263
2023-04-15T03:27:12.804Z,76.1339
2023-04-15T03:28:13.345Z,75.7739
2023-04-15T03:29:15.424Z,75.8337
2023-04-15T03:30:15.935Z,75.8242
2023-04-15T03:31:16.828Z,75.5702
2023-04-15T03:32:17.339Z,75.5769
2023-04-15T03:33:17.890Z,75.4998
2023-04-15T03:34:18.442Z,75.8127
2023-04-15T03:35:19.012Z,76.0492
2023-04-15T03:36:19.541Z,76.1468
2023-04-15T03:37:20.054Z,75.8272
2023-04-15T03:38:20.621Z,75.8949
2023-04-15T03:39:21.174Z,75.5491
2023-04-15T03:40:21.706Z,75.5911
2023-04-15T03:41:22.500Z,75.7040
2023-04-15T03:42:23.003Z,75.7426
2023-04-15T03:43:23.574Z,76.0081
2023-04-15T03:44:24.129Z,75.6025
2023-04-15T03:45:24.690Z,75.9165
2023-04-15T03:46:25.487Z,75.6674
2023-04-15T03:47:25.991Z,75.8082
2023-04-15T03:48:26.516Z,76.0380
2023-04-15T03:49:27.076Z,76.3527
2023-04-15T03:50:27.593Z,76.4162
2023-04-15T03:51:28.135Z,76.2123
2023-04-15T03:52:28.697Z,76.6390
2023-04-15T03:53:29.288Z,76.4579
2023-04-15T03:54:29.833Z,76.8037
2023-04-15T03:55:30.361Z,77.0255
2023-04-15T03:56:31.126Z,77.0916
2023-04-15T03:57:31.692Z,77.0403
2023-04-15T03:58:32.282Z,77.3681
2023-04-15T03:59:32.850Z,77.4044
2023-04-15T04:00:33.401Z,77.5548
2023-04-15T04:01:34.021Z,77.6292
2023-04-15T04:02:34.612Z,77.4403
2023-04-15T04:03:35.357Z,77.6803
2023-04-15T04:04:36.056Z,77.7146
2023-04-15T04:05:36.572Z,77.4666
2023-04-15T04:06:37.109Z,77.6015
2023-04-15T04:07:37.652Z,77.8943
2023-04-15T04:08:38.283Z,78.0127
2023-04-15T04:09:38.809Z,78.1575
2023-04-15T04:10:39.402Z,77.9567
2023-04-15T04:11:40.262Z,77.9922
2023-04-15T04:12:40.769Z,77.9656
2023-04-15T04:13:41.394Z,78.1942
2023-04-15T04:14:41.934Z,77.8659
2023-04-15T04:15:42.480Z,77.7288
2023-04-15T04:16:44.886Z,77.6733
2023-04-15T04:17:45.406Z,77.3163
2023-04-15T04:18:45.984Z,77.3689
2023-04-15T04:19:46.554Z,76.8145
2023-04-15T04:20:47.102Z,76.9063
2023-04-15T04:21:47.872Z,77.4491
2023-04-15T04:22:48.427Z,77.3616
2023-04-15T04:23:49.017Z,77.3817
2023-04-15T04:24:49.538Z,77.1155
2023-04-15T04:25:50.076Z,76.3863
2023-04-15T04:26:50.609Z,76.5375
2023-04-15T04:27:51.172Z,76.6562
2023-04-15T04:28:51.918Z,77.1129
2023-04-15T04:29:52.478Z,77.5523
2023-04-15T04:30:52.997Z,77.0027
2023-04-15T04:31:53.630Z,77.5335
2023-04-15T04:32:54.191Z,77.1071
2023-04-15T04:33:54.718Z,76.4849
2023-04-15T04:34:55.246Z,76.5117
2023-04-15T04:35:55.778Z,76.8298
2023-04-15T04:36:56.353Z,77.0168
2023-04-15T04:37:56.907Z,76.3999
2023-04-15T04:38:57.441Z,75.7489
2023-04-15T04:39:57.957Z,75.1531
2023-04-15T04:40:58.463Z,75.3400
2023-04-15T04:41:59.244Z,75.3135
2023-04-15T04:42:59.807Z,74.9845
2023-04-15T04:44:00.353Z,74.9819
2023-04-15T04:45:00.892Z,74.7022
2023-04-15T04:46:01.481Z,75.0491
2023-04-15T04:47:02.072Z,75.3136
2023-04-15T04:48:02.759Z,75.3618
2023-04-15T04:49:03.770Z,74.6156
2023-04-15T04:50:04.359Z,75.2634
2023-04-15T04:51:04.910Z,75.4033
2023-04-15T04:52:05.444Z,75.2926
2023-04-15T04:53:05.974Z,75.4558
2023-04-15T04:54:06.787Z,75.0624
2023-04-15T04:55:07.337Z,74.4618
2023-04-15T04:56:07.872Z,74.4248
2023-04-15T04:57:08.423Z,74.0215
2023-04-15T04:58:09.008Z,74.6825
2023-04-15T04:59:09.557Z,74.8153
2023-04-15T05:00:10.142Z,74.2307
2023-04-15T05:01:10.781Z,73.7539
2023-04-15T05:02:11.341Z,73.6335
2023-04-15T05:03:12.148Z,73.8521
2023-04-15T05:04:13.182Z,74.3217
2023-04-15T05:05:13.768Z,74.3415
2023-04-15T05:06:14.320Z,74.4384
2023-04-15T05:07:14.898Z,74.5455
2023-04-15T05:08:15.507Z,74.7560
2023-04-15T05:09:16.378Z,74.8953
2023-04-15T05:10:16.957Z,74.9862
2023-04-15T05:11:17.467Z,74.9274
2023-04-15T05:12:17.988Z,75.0928
2023-04-15T05:13:18.545Z,75.3012
2023-04-15T05:14:19.138Z,75.3822
2023-04-15T05:15:19.679Z,75.4656
2023-04-15T05:16:20.295Z,75.3396
2023-04-15T05:17:20.903Z,75.0565
2023-04-15T05:18:21.447Z,75.0528
2023-04-15T05:19:22.012Z,74.3189
2023-04-15T05:20:22.547Z,74.4411
2023-04-15T05:21:23.079Z,74.9749
2023-04-15T05:22:23.634Z,74.9731
2023-04-15T05:23:24.517Z,74.9111
2023-04-15T05:24:25.066Z,74.8934
2023-04-15T05:25:25.584Z,74.7603
2023-04-15T05:26:26.143Z,74.6733
2023-04-15T05:27:26.725Z,74.8122
2023-04-15T05:28:27.271Z,74.7172
2023-04-15T05:29:27.817Z,74.6202
2023-04-15T05:30:28.348Z,74.2725
2023-04-15T05:31:29.209Z,74.1878
2023-04-15T05:32:29.840Z,74.4056
2023-04-15T05:33:30.416Z,74.5546
2023-04-15T05:34:31.035Z,75.0343
2023-04-15T05:35:31.603Z,75.3742
2023-04-15T05:36:32.189Z,74.8921
2023-04-15T05:37:32.764Z,74.9571
2023-04-15T05:38:33.556Z,74.0232
2023-04-15T05:39:34.163Z,74.0441
2023-04-15T05:40:34.755Z,73.3969
2023-04-15T05:41:35.336Z,73.5725
2023-04-15T05:42:35.899Z,73.9057
2023-04-15T05:43:36.521Z,73.9672
2023-04-15T05:44:37.153Z,73.6996
2023-04-15T05:45:37.729Z,73.3287
2023-04-15T05:46:38.583Z,73.5873
2023-04-15T05:47:39.259Z,73.6536
2023-04-15T05:48:39.895Z,73.6536
2023-04-15T05:49:40.492Z,73.0186
2023-04-15T05:50:41.071Z,72.8398
2023-04-15T05:51:41.733Z,73.0977
2023-04-15T05:52:42.277Z,72.6115
2023-04-15T05:53:42.851Z,72.4129
2023-04-15T05:54:43.438Z,72.2716
2023-04-15T05:55:44.040Z,72.9218
2023-04-15T05:56:44.617Z,73.1115
2023-04-15T05:57:45.227Z,72.7329
2023-04-15T05:58:46.017Z,72.1502
2023-04-15T05:59:46.562Z,72.5652
2023-04-15T06:00:47.149Z,71.8247
2023-04-15T06:01:47.981Z,72.3860
2023-04-15T06:02:48.661Z,72.4079
2023-04-15T06:03:49.445Z,73.1655
2023-04-15T06:04:50.186Z,73.0118
2023-04-15T06:05:50.688Z,73.3928
2023-04-15T06:06:51.256Z,73.4419
2023-04-15T06:07:51.823Z,73.2668
2023-04-15T06:08:52.458Z,73.1451
2023-04-15T06:09:53.040Z,72.8376
2023-04-15T06:10:53.622Z,72.4138
2023-04-15T06:11:54.310Z,71.8953
2023-04-15T06:12:54.838Z,71.5728
2023-04-15T06:13:55.414Z,70.9642
2023-04-15T06:14:56.022Z,70.4002
2023-04-15T06:15:56.605Z,70.5863
2023-04-15T06:16:57.247Z,71.6628
2023-04-15T06:17:57.830Z,70.4459
2023-04-15T06:18:58.436Z,70.7597
2023-04-15T06:19:59.016Z,70.2639
2023-04-15T06:20:59.622Z,71.4520
2023-04-15T06:22:00.228Z,71.2405
2023-04-15T06:23:00.823Z,70.8899
2023-04-15T06:24:01.473Z,70.5967
2023-04-15T06:25:02.116Z,70.2390
2023-04-15T06:26:02.712Z,69.5249
2023-04-15T06:27:03.312Z,69.3808
2023-04-15T06:28:03.898Z,68.7882
2023-04-15T06:29:04.483Z,69.0210
2023-04-15T06:30:05.088Z,69.2999
2023-04-15T06:31:07.269Z,68.3304
2023-04-15T06:32:07.827Z,68.8823
2023-04-15T06:33:08.467Z,68.6971
2023-04-15T06:34:09.105Z,68.2382
2023-04-15T06:35:09.698Z,68.1814
2023-04-15T06:36:10.355Z,67.3071
2023-04-15T06:37:10.904Z,67.1510
2023-04-15T06:38:11.503Z,67.1167
2023-04-15T06:39:12.079Z,66.7326
2023-04-15T06:40:12.675Z,66.5276
2023-04-15T06:41:13.256Z,68.1304
2023-04-15T06:42:13.848Z,68.0854
2023-04-15T06:43:14.477Z,66.5411
2023-04-15T06:44:15.080Z,67.1533
2023-04-15T06:45:15.701Z,66.9723
2023-04-15T06:46:16.368Z,67.2212
2023-04-15T06:47:17.017Z,67.5811
2023-04-15T06:48:17.629Z,67.3108
2023-04-15T06:49:18.237Z,67.5333
2023-04-15T06:50:18.866Z,67.8633
2023-04-15T06:51:19.457Z,67.4417
2023-04-15T06:52:20.074Z,68.1472
2023-04-15T06:53:20.624Z,69.9826
2023-04-15T06:54:21.234Z,69.0750
2023-04-15T06:55:21.828Z,68.2162
2023-04-15T06:56:22.408Z,68.6724
2023-04-15T06:57:23.017Z,69.0871
2023-04-15T06:58:23.571Z,68.9588
2023-04-15T06:59:24.145Z,70.1873
2023-04-15T07:00:24.779Z,69.1813
2023-04-15T07:01:25.390Z,68.5978
2023-04-15T07:02:26.127Z,69.7700
2023-04-15T07:03:26.731Z,69.6432
2023-04-15T07:04:27.335Z,68.7284
2023-04-15T07:05:27.985Z,68.6181
2023-04-15T07:06:28.625Z,67.6154
2023-04-15T07:07:29.191Z,68.2996
2023-04-15T07:08:30.025Z,68.8757
2023-04-15T07:09:30.595Z,68.0625
2023-04-15T07:10:31.190Z,68.1817
2023-04-15T07:11:31.789Z,68.5833
2023-04-15T07:12:32.365Z,68.2501
2023-04-15T07:13:32.936Z,68.1931
2023-04-15T07:14:33.520Z,66.8929
2023-04-15T07:15:34.123Z,66.8754
2023-04-15T07:16:34.770Z,67.1555
2023-04-15T07:17:35.411Z,68.4815
2023-04-15T07:18:35.993Z,69.3620
2023-04-15T07:19:36.590Z,70.4396
2023-04-15T07:20:37.232Z,69.7185
2023-04-15T07:21:38.928Z,69.6328
2023-04-15T07:22:40.522Z,68.8398
2023-04-15T07:23:41.347Z,68.3389
2023-04-15T07:24:41.922Z,70.2613
2023-04-15T07:25:42.541Z,70.5055
2023-04-15T07:26:43.105Z,69.7329
2023-04-15T07:27:43.691Z,69.6187
2023-04-15T07:28:44.307Z,69.7064
2023-04-15T07:29:44.902Z,70.2020
2023-04-15T07:30:45.499Z,70.8957
2023-04-15T07:31:46.119Z,72.1903
2023-04-15T07:32:46.758Z,72.9419
2023-04-15T07:33:47.303Z,71.4312
2023-04-15T07:34:47.908Z,72.3974
2023-04-15T07:35:48.530Z,73.5135
2023-04-15T07:36:49.116Z,74.3641
2023-04-15T07:37:49.912Z,72.9240
2023-04-15T07:38:50.495Z,72.5497
2023-04-15T07:39:51.124Z,71.9564
2023-04-15T07:40:51.865Z,74.7433
2023-04-15T07:41:52.438Z,76.5271
2023-04-15T07:42:53.009Z,76.2060
2023-04-15T07:43:53.685Z,77.0117
2023-04-15T07:44:54.259Z,76.6304
2023-04-15T07:45:55.114Z,76.4602
2023-04-15T07:46:55.659Z,75.0406
2023-04-15T07:47:56.381Z,74.8153
2023-04-15T07:48:56.986Z,74.1680
2023-04-15T07:49:57.616Z,73.6522
2023-04-15T07:50:58.226Z,73.8389
2023-04-15T07:51:58.826Z,76.0054
2023-04-15T07:52:59.665Z,76.7610
2023-04-15T07:54:00.241Z,75.1175
2023-04-15T07:55:00.874Z,73.4773
2023-04-15T07:56:01.733Z,73.4225
2023-04-15T07:57:02.330Z,73.4809
2023-04-15T07:58:03.041Z,72.8845
2023-04-15T07:59:03.805Z,72.4798
2023-04-15T08:00:04.566Z,71.9445
2023-04-15T08:01:05.171Z,72.2091
2023-04-15T08:02:05.932Z,74.2558
2023-04-15T08:03:06.573Z,72.8212
2023-04-15T08:04:07.377Z,74.7288
2023-04-15T08:05:07.982Z,75.8952
2023-04-15T08:06:08.577Z,76.3730
2023-04-15T08:07:09.157Z,75.7713
2023-04-15T08:08:09.751Z,74.5371
2023-04-15T08:09:10.357Z,74.3405
2023-04-15T08:10:11.112Z,73.6054
2023-04-15T08:11:11.921Z,74.0939
2023-04-15T08:12:12.505Z,73.4383
2023-04-15T08:13:13.106Z,71.8456
2023-04-15T08:14:13.689Z,72.2017
2023-04-15T08:15:14.296Z,72.3186
2023-04-15T08:16:14.866Z,71.7875
2023-04-15T08:17:15.627Z,70.5556
2023-04-15T08:18:16.277Z,70.7662
2023-04-15T08:19:16.872Z,70.3205
2023-04-15T08:20:17.503Z,71.4273
2023-04-15T08:21:18.165Z,72.9906
2023-04-15T08:22:20.105Z,72.5051
2023-04-15T08:23:22.175Z,72.1193
2023-04-15T08:24:22.818Z,71.5885
2023-04-15T08:25:23.430Z,70.9484
2023-04-15T08:26:24.022Z,72.0807
2023-04-15T08:27:24.608Z,73.0468
2023-04-15T08:28:25.199Z,73.0028
2023-04-15T08:29:25.838Z,70.8729
2023-04-15T08:30:26.666Z,68.3368
2023-04-15T08:31:27.403Z,67.7864
2023-04-15T08:32:27.985Z,68.4433
2023-04-15T08:33:28.904Z,68.5620
2023-04-15T08:34:29.484Z,68.8552
2023-04-15T08:35:30.158Z,67.1772
2023-04-15T08:36:30.759Z,66.7039
2023-04-15T08:37:31.551Z,67.9493
2023-04-15T08:38:32.167Z,68.9298
2023-04-15T08:39:32.835Z,68.1037
2023-04-15T08:40:33.689Z,69.1603
2023-04-15T08:41:34.275Z,69.8466
2023-04-15T08:42:34.901Z,71.2268
2023-04-15T08:43:35.526Z,71.2636
2023-04-15T08:44:36.102Z,71.3248
2023-04-15T08:45:36.692Z,71.0987
2023-04-15T08:46:37.371Z,69.4815
2023-04-15T08:47:38.204Z,68.1410
2023-04-15T08:48:38.817Z,67.1566
2023-04-15T08:49:39.481Z,66.6027
2023-04-15T08:50:40.124Z,67.8888
2023-04-15T08:51:40.731Z,67.0951
2023-04-15T08:52:41.555Z,68.2105
2023-04-15T08:53:42.179Z,67.5130
2023-04-15T08:54:42.779Z,66.1683
2023-04-15T08:55:43.567Z,64.9681
2023-04-15T08:56:44.379Z,65.0647
2023-04-15T08:57:44.953Z,66.0529
2023-04-15T08:58:45.508Z,65.2981
2023-04-15T08:59:46.086Z,65.6736
2023-04-15T09:00:46.760Z,64.7862
2023-04-15T09:01:47.445Z,64.8799
2023-04-15T09:02:48.152Z,66.5197
2023-04-15T09:03:48.852Z,69.1246
2023-04-15T09:04:49.537Z,70.5289
2023-04-15T09:05:51.461Z,71.8885
2023-04-15T09:06:50.227Z,71.8666
2023-04-15T09:07:50.858Z,71.4204
2023-04-15T09:08:51.385Z,71.8697
2023-04-15T09:09:51.949Z,72.3428
2023-04-15T09:10:52.559Z,72.9203
2023-04-15T09:11:53.158Z,73.7525
2023-04-15T09:12:53.769Z,73.5931
2023-04-15T09:13:54.357Z,73.4901
2023-04-15T09:14:54.932Z,72.2141
2023-04-15T09:15:55.497Z,73.4803
2023-04-15T09:16:56.106Z,74.0655
2023-04-15T09:17:56.715Z,74.0821
2023-04-15T09:18:57.326Z,74.5540
2023-04-15T09:19:57.908Z,74.9994
2023-04-15T09:20:58.490Z,74.7841
2023-04-15T09:21:59.414Z,74.8167
2023-04-15T09:23:00.440Z,74.0732
2023-04-15T09:24:01.403Z,72.5670
2023-04-15T09:25:02.437Z,73.1219
2023-04-15T09:26:03.052Z,73.2550
2023-04-15T09:27:03.680Z,72.4701
2023-04-15T09:28:04.494Z,72.2361
2023-04-15T09:29:05.101Z,70.9276
2023-04-15T09:30:05.668Z,71.3384
2023-04-15T09:31:06.283Z,71.9805
2023-04-15T09:32:06.869Z,72.0869
2023-04-15T09:33:07.511Z,70.8847
2023-04-15T09:34:08.056Z,69.2489
2023-04-15T09:35:08.893Z,68.8629
2023-04-15T09:36:09.587Z,67.2251
2023-04-15T09:37:10.543Z,67.0173
2023-04-15T09:38:11.113Z,67.2607
2023-04-15T09:39:11.680Z,69.7085
2023-04-15T09:40:12.269Z,69.7887
2023-04-15T09:41:12.842Z,68.8115
2023-04-15T09:42:13.427Z,69.2972
2023-04-15T09:43:14.032Z,66.4161
2023-04-15T09:44:14.582Z,66.8872
2023-04-15T09:45:15.200Z,67.0610
2023-04-15T09:46:15.793Z,66.8457
2023-04-15T09:47:16.672Z,67.2356
2023-04-15T09:48:17.299Z,66.1815
2023-04-15T09:49:17.973Z,67.4694
2023-04-15T09:50:18.551Z,67.3462
2023-04-15T09:51:19.213Z,66.9690
2023-04-15T09:52:19.794Z,67.2479
2023-04-15T09:53:20.387Z,66.4269
2023-04-15T09:54:20.974Z,65.2463
2023-04-15T09:55:21.552Z,64.7420
2023-04-15T09:56:22.138Z,62.1650
2023-04-15T09:57:22.693Z,62.9254
2023-04-15T09:58:23.278Z,64.3579
2023-04-15T09:59:23.844Z,61.8258
2023-04-15T10:00:24.985Z,60.0827
2023-04-15T10:01:25.565Z,61.8353
2023-04-15T10:02:26.287Z,63.6972
2023-04-15T10:03:27.000Z,60.9535
2023-04-15T10:04:27.958Z,61.4247
2023-04-15T10:05:29.775Z,63.0694
2023-04-15T10:06:30.777Z,65.6384
2023-04-15T10:07:31.349Z,67.5889
2023-04-15T10:08:31.958Z,66.2493
2023-04-15T10:09:32.553Z,64.3860
2023-04-15T10:10:33.133Z,64.9639
2023-04-15T10:11:33.692Z,65.1216
2023-04-15T10:12:34.315Z,66.4883
2023-04-15T10:13:34.877Z,67.3230
2023-04-15T10:14:35.506Z,66.4656
2023-04-15T10:15:36.090Z,66.1976
2023-04-15T10:16:36.634Z,65.9739
2023-04-15T10:17:37.461Z,65.6238
2023-04-15T10:18:38.150Z,66.8017
2023-04-15T10:19:38.771Z,66.7626
2023-04-15T10:20:39.365Z,66.4251
2023-04-15T10:21:39.949Z,67.6848
2023-04-15T10:22:40.757Z,67.7454
2023-04-15T10:23:41.280Z,67.8726
2023-04-15T10:25:44.935Z,68.7710
2023-04-15T10:26:45.556Z,68.5954
2023-04-15T10:27:46.122Z,68.6207
2023-04-15T10:28:46.710Z,67.9533
2023-04-15T10:29:47.299Z,68.4390
2023-04-15T10:30:47.880Z,71.3759
2023-04-15T10:31:48.576Z,72.9879
2023-04-15T10:32:49.169Z,71.2584
2023-04-15T10:33:49.733Z,71.0294
2023-04-15T10:34:51.071Z,70.3362
2023-04-15T10:35:52.414Z,70.8383
2023-04-15T10:36:52.978Z,70.3357
2023-04-15T10:37:53.552Z,70.1136
2023-04-15T10:38:54.132Z,71.3492
2023-04-15T10:39:54.910Z,71.8035
2023-04-15T10:40:55.514Z,71.3546
2023-04-15T10:41:56.167Z,70.8387
2023-04-15T10:42:56.725Z,70.3041
2023-04-15T10:43:57.295Z,70.2361
2023-04-15T10:44:57.868Z,70.5252
2023-04-15T10:45:58.445Z,71.3531
2023-04-15T10:46:59.277Z,70.7787
2023-04-15T10:48:01.596Z,69.6507
2023-04-15T10:49:00.359Z,69.3151
2023-04-15T10:50:00.985Z,74.1591
2023-04-15T10:51:01.591Z,74.4725
2023-04-15T10:52:02.167Z,76.6743
2023-04-15T10:53:02.726Z,76.3541
2023-04-15T10:54:03.536Z,77.2524
2023-04-15T10:55:04.114Z,77.5705
2023-04-15T10:56:04.682Z,76.8819
2023-04-15T10:57:05.250Z,76.8072
2023-04-15T10:58:05.866Z,76.2748
2023-04-15T10:59:06.431Z,74.8708
2023-04-15T11:00:07.001Z,73.2770
2023-04-15T11:01:07.616Z,71.8339
2023-04-15T11:02:08.479Z,72.3350
2023-04-15T11:03:09.518Z,72.4867
2023-04-15T11:04:10.543Z,72.7909
2023-04-15T11:05:11.097Z,76.1618
2023-04-15T11:06:11.669Z,75.5593
2023-04-15T11:07:12.257Z,73.2630
2023-04-15T11:08:12.868Z,72.6730
2023-04-15T11:09:13.690Z,73.1621
2023-04-15T11:10:14.279Z,71.8021
2023-04-15T11:11:14.831Z,70.1957
2023-04-15T11:12:15.445Z,70.5641
2023-04-15T11:13:16.062Z,71.2060
2023-04-15T11:14:16.632Z,72.9956
2023-04-15T11:15:17.199Z,72.2310
2023-04-15T11:16:17.820Z,71.0768
2023-04-15T11:17:18.698Z,71.2689
2023-04-15T11:18:19.297Z,71.8751
2023-04-15T11:19:19.908Z,71.5331
2023-04-15T11:20:20.499Z,74.0966
2023-04-15T11:21:21.088Z,74.1131
2023-04-15T11:22:21.666Z,74.6629
2023-04-15T11:23:22.534Z,74.1176
2023-04-15T11:24:23.318Z,73.9993
2023-04-15T11:25:24.043Z,73.6052
2023-04-15T11:26:24.697Z,75.7895
2023-04-15T11:27:25.293Z,77.1024
2023-04-15T11:28:25.856Z,76.7554
2023-04-15T11:29:26.465Z,76.7682
2023-04-15T11:30:27.080Z,76.9926
2023-04-15T11:31:27.701Z,75.5525
2023-04-15T11:32:28.282Z,74.8243
2023-04-15T11:33:28.911Z,76.9393
2023-04-15T11:34:29.493Z,77.3421
2023-04-15T11:35:30.084Z,76.3770
2023-04-15T11:36:30.645Z,76.6017
2023-04-15T11:37:31.252Z,76.8508
2023-04-15T11:38:31.834Z,77.5376
2023-04-15T11:39:32.429Z,77.4780
2023-04-15T11:40:32.980Z,77.8748
2023-04-15T11:41:33.579Z,76.8069
2023-04-15T11:42:48.741Z,77.4368
2023-04-15T11:43:37.148Z,77.6555
2023-04-15T11:44:37.735Z,77.4855
2023-04-15T11:45:38.340Z,77.4324
2023-04-15T11:46:38.912Z,77.4227
2023-04-15T11:47:39.509Z,77.4001
2023-04-15T11:48:40.113Z,77.7770
2023-04-15T11:49:40.953Z,77.6128
2023-04-15T11:50:41.559Z,78.3336
2023-04-15T11:51:42.099Z,77.8598
2023-04-15T11:52:42.656Z,78.7648
2023-04-15T11:53:43.281Z,79.2028
2023-04-15T11:54:43.873Z,76.7550
2023-04-15T11:55:44.683Z,74.9064
2023-04-15T11:56:45.244Z,73.6681
2023-04-15T11:57:45.839Z,72.4817
2023-04-15T11:58:46.572Z,73.7233
2023-04-15T11:59:47.220Z,75.3754
2023-04-15T12:00:47.878Z,74.7738
2023-04-15T12:01:48.711Z,75.5981
2023-04-15T12:02:49.360Z,76.6115
2023-04-15T12:03:50.545Z,76.2387
2023-04-15T12:04:51.360Z,74.6099
2023-04-15T12:05:51.976Z,74.4368
2023-04-15T12:06:52.585Z,74.4877
2023-04-15T12:07:53.210Z,74.0772
2023-04-15T12:08:53.816Z,72.5980
2023-04-15T12:09:54.443Z,69.5670
2023-04-15T12:10:55.070Z,68.6275
2023-04-15T12:11:55.664Z,68.0989
2023-04-15T12:12:56.284Z,72.0600
2023-04-15T12:13:56.885Z,75.2836
2023-04-15T12:14:57.541Z,75.2429
2023-04-15T12:15:58.186Z,75.1656
2023-04-15T12:16:58.813Z,75.0831
2023-04-15T12:17:59.743Z,72.8744
2023-04-15T12:19:02.342Z,72.7118
2023-04-15T12:20:02.993Z,70.4423
2023-04-15T12:21:03.587Z,72.6295
2023-04-15T12:22:04.212Z,70.6032